Time;durP1;ratioP1;P1;durP2;ratioP2;P2;SDS_P1;SDS_P2;PMS_P1;PMS_P2;Temp;Humidity;BMP_temperature;BMP_pressure;BME280_temperature;BME280_humidity;BME280_pressure;Samples;Min_cycle;Max_cycle;Signal;HPM_P1;HPM_P2
2021/11/21 00:04:40;;;;;;;56.60;33.38;;;;;;;3.64;100.00;98129.28;10426221;28;20057;-62
2021/11/21 00:09:45;;;;;;;49.40;30.55;;;;;;;3.64;100.00;98124.78;10430677;28;20472;-62
2021/11/21 00:14:49;;;;;;;47.15;30.17;;;;;;;3.64;100.00;98103.47;10426330;28;20112;-61
2021/11/21 00:19:54;;;;;;;54.38;32.53;;;;;;;3.64;100.00;98108.81;10479998;28;20147;-60
2021/11/21 00:25:01;;;;;;;49.78;31.40;;;;;;;3.63;100.00;98107.09;10463901;28;20551;-61
2021/11/21 00:30:06;;;;;;;44.38;30.30;;;;;;;3.63;100.00;98096.44;10488345;28;20453;-62
2021/11/21 00:35:09;;;;;;;51.20;31.15;;;;;;;3.62;100.00;98086.75;10472584;28;20116;-61
2021/11/21 00:40:15;;;;;;;49.97;30.52;;;;;;;3.65;100.00;98080.34;10467678;28;20098;-62
2021/11/21 00:45:20;;;;;;;53.33;32.53;;;;;;;3.70;100.00;98092.31;10490777;28;20048;-61
2021/11/21 00:50:26;;;;;;;48.80;31.55;;;;;;;3.74;100.00;98092.91;10491399;28;20501;-61
2021/11/21 00:55:35;;;;;;;46.63;30.73;;;;;;;3.81;100.00;98093.25;10475879;28;20509;-62
2021/11/21 01:00:41;;;;;;;49.08;31.00;;;;;;;3.80;100.00;98072.91;10478813;28;20036;-62
2021/11/21 01:05:46;;;;;;;46.88;29.63;;;;;;;3.76;100.00;98076.78;10477613;28;20045;-61
2021/11/21 01:10:53;;;;;;;50.47;31.55;;;;;;;3.75;100.00;98077.78;10466445;28;20095;-62
2021/11/21 01:15:57;;;;;;;47.05;29.98;;;;;;;3.77;100.00;98065.16;10472776;28;20049;-62
2021/11/21 01:21:25;;;;;;;46.60;29.92;;;;;;;3.69;100.00;98064.00;10468415;28;20048;-62
2021/11/21 01:26:30;;;;;;;49.03;30.65;;;;;;;3.70;100.00;98046.19;10467963;28;20123;-61
2021/11/21 01:31:33;;;;;;;49.08;31.42;;;;;;;3.68;100.00;98058.78;10466442;28;20131;-61
2021/11/21 01:36:36;;;;;;;50.17;30.75;;;;;;;3.65;100.00;98049.22;10464746;28;20048;-61
2021/11/21 01:41:42;;;;;;;48.10;30.25;;;;;;;3.63;100.00;98045.84;10467475;28;20494;-60
2021/11/21 01:46:48;;;;;;;47.72;30.17;;;;;;;3.62;100.00;98046.81;10461783;28;20568;-61
2021/11/21 01:51:51;;;;;;;49.38;31.92;;;;;;;3.59;100.00;98044.38;10457594;28;20466;-61
2021/11/21 01:56:56;;;;;;;49.17;31.35;;;;;;;3.59;100.00;98031.06;10461052;28;20390;-61
2021/11/21 02:01:59;;;;;;;51.28;31.60;;;;;;;3.55;100.00;98030.47;10459102;28;20324;-61
2021/11/21 02:07:04;;;;;;;51.95;31.38;;;;;;;3.52;100.00;98017.44;10456035;28;20074;-61
2021/11/21 02:12:08;;;;;;;52.55;30.48;;;;;;;3.51;100.00;98007.75;10456733;28;20052;-60
2021/11/21 02:17:12;;;;;;;50.90;30.65;;;;;;;3.48;100.00;98002.69;10456552;28;20055;-61
2021/11/21 02:22:16;;;;;;;45.95;29.23;;;;;;;3.49;100.00;97993.72;10458327;28;20080;-60
2021/11/21 02:27:28;;;;;;;44.08;28.45;;;;;;;3.50;100.00;98005.19;10465903;28;20055;-61
2021/11/21 02:32:31;;;;;;;48.35;30.35;;;;;;;3.49;100.00;97987.53;10452319;28;20119;-61
2021/11/21 02:37:37;;;;;;;52.08;32.15;;;;;;;3.51;100.00;97983.78;10434320;28;20075;-61
2021/11/21 02:42:40;;;;;;;45.45;29.25;;;;;;;3.52;100.00;97971.31;10474778;28;20044;-59
2021/11/21 02:47:43;;;;;;;42.53;28.13;;;;;;;3.51;100.00;97958.94;10457034;28;20132;-61
2021/11/21 02:52:50;;;;;;;45.38;28.98;;;;;;;3.49;100.00;97953.78;10480092;28;20043;-60
2021/11/21 02:57:53;;;;;;;52.80;32.17;;;;;;;3.48;100.00;97956.53;10480681;28;20143;-61
2021/11/21 03:02:56;;;;;;;63.97;35.53;;;;;;;3.40;100.00;97951.88;10472626;28;20048;-61
2021/11/21 03:08:02;;;;;;;65.65;36.50;;;;;;;3.32;100.00;97956.97;10469880;28;20041;-60
2021/11/21 03:13:08;;;;;;;60.35;34.47;;;;;;;3.34;100.00;97969.22;10475906;28;20040;-61
2021/11/21 03:18:11;;;;;;;61.22;33.72;;;;;;;3.36;100.00;97950.44;10476325;28;20390;-59
2021/11/21 03:23:15;;;;;;;59.40;33.92;;;;;;;3.39;100.00;97956.34;10472637;28;20115;-61
2021/11/21 03:28:18;;;;;;;57.75;33.33;;;;;;;3.44;100.00;97949.81;10454990;28;20105;-59
2021/11/21 03:33:21;;;;;;;54.53;32.22;;;;;;;3.47;100.00;97946.88;10473058;28;20046;-60
2021/11/21 03:38:26;;;;;;;60.33;33.35;;;;;;;3.51;100.00;97942.97;10470923;28;20132;-61
2021/11/21 03:43:29;;;;;;;57.22;32.05;;;;;;;3.57;100.00;97936.28;10471037;28;20480;-61
2021/11/21 03:48:34;;;;;;;57.53;33.35;;;;;;;3.62;100.00;97928.78;10463819;28;20218;-56
2021/11/21 03:53:39;;;;;;;58.35;33.38;;;;;;;3.66;100.00;97927.50;10469255;28;20102;-61
2021/11/21 03:58:42;;;;;;;56.83;31.95;;;;;;;3.70;100.00;97921.78;10464597;28;20041;-61
2021/11/21 04:03:46;;;;;;;53.78;31.10;;;;;;;3.76;100.00;97908.94;10465106;28;20525;-60
2021/11/21 04:08:50;;;;;;;58.45;30.00;;;;;;;3.79;100.00;97901.53;10439727;28;20049;-61
2021/11/21 04:13:53;;;;;;;56.50;30.08;;;;;;;3.87;100.00;97898.22;10462178;28;20037;-61
2021/11/21 04:18:56;;;;;;;62.15;29.95;;;;;;;3.93;100.00;97894.16;10465783;28;20089;-60
2021/11/21 04:24:01;;;;;;;58.83;30.38;;;;;;;3.99;100.00;97883.81;10467302;28;20049;-61
2021/11/21 04:29:05;;;;;;;53.88;28.80;;;;;;;4.06;100.00;97877.97;10442809;28;20052;-60
2021/11/21 04:34:08;;;;;;;53.92;28.85;;;;;;;4.06;100.00;97878.81;10454015;28;20550;-60
2021/11/21 04:39:12;;;;;;;51.53;28.27;;;;;;;4.10;100.00;97858.06;10453858;28;20123;-59
2021/11/21 04:44:15;;;;;;;47.47;27.00;;;;;;;4.12;100.00;97856.09;10463061;28;20652;-61
2021/11/21 04:49:18;;;;;;;46.25;26.85;;;;;;;4.16;100.00;97852.19;10465233;28;20124;-61
2021/11/21 04:54:26;;;;;;;48.33;26.40;;;;;;;4.17;100.00;97843.22;10474251;28;20039;-60
2021/11/21 04:59:29;;;;;;;49.72;27.17;;;;;;;4.16;100.00;97845.03;10471095;28;20086;-61
2021/11/21 05:04:32;;;;;;;47.58;26.75;;;;;;;4.18;100.00;97842.22;10479758;28;20071;-59
2021/11/21 05:09:36;;;;;;;48.40;27.50;;;;;;;4.19;100.00;97841.25;10472014;28;20083;-61
2021/11/21 05:14:39;;;;;;;45.72;26.33;;;;;;;4.18;100.00;97839.56;10465037;28;20056;-59
2021/11/21 05:19:42;;;;;;;44.00;25.08;;;;;;;4.20;100.00;97842.09;10467502;28;20132;-60
2021/11/21 05:24:48;;;;;;;48.22;26.33;;;;;;;4.24;100.00;97849.69;10471046;28;20072;-60
2021/11/21 05:29:52;;;;;;;46.88;26.42;;;;;;;4.23;100.00;97845.34;10466242;28;20127;-60
2021/11/21 05:34:55;;;;;;;46.22;26.15;;;;;;;4.23;100.00;97833.84;10469961;28;20123;-62
2021/11/21 05:40:00;;;;;;;48.53;25.48;;;;;;;4.30;100.00;97842.97;10466421;28;20075;-62
2021/11/21 05:45:03;;;;;;;42.17;24.77;;;;;;;4.28;100.00;97837.78;10459689;28;20116;-62
2021/11/21 05:50:12;;;;;;;47.13;25.73;;;;;;;4.25;100.00;97843.38;10462741;28;20432;-62
2021/11/21 05:55:19;;;;;;;43.47;24.90;;;;;;;4.21;100.00;97841.13;10461281;28;20114;-62
2021/11/21 06:00:24;;;;;;;46.10;26.63;;;;;;;4.19;100.00;97825.25;10457188;28;20064;-62
2021/11/21 06:05:29;;;;;;;46.00;26.33;;;;;;;4.20;100.00;97826.94;10465142;28;20045;-59
2021/11/21 06:10:33;;;;;;;43.85;24.50;;;;;;;4.21;100.00;97831.28;10466121;28;20119;-60
2021/11/21 06:15:36;;;;;;;44.92;25.30;;;;;;;4.25;100.00;97824.72;10456532;28;20473;-58
2021/11/21 06:20:39;;;;;;;42.53;24.13;;;;;;;4.27;100.00;97816.56;10462710;28;20130;-58
2021/11/21 06:25:43;;;;;;;44.28;23.52;;;;;;;4.29;100.00;97814.63;10451253;28;20064;-59
2021/11/21 06:30:47;;;;;;;42.42;24.33;;;;;;;4.27;100.00;97820.09;10453885;28;20071;-60
2021/11/21 06:35:50;;;;;;;36.65;22.20;;;;;;;4.28;100.00;97816.47;10469380;28;20079;-62
2021/11/21 06:40:55;;;;;;;40.28;22.67;;;;;;;4.30;100.00;97811.81;10440334;28;20056;-60
2021/11/21 06:45:58;;;;;;;40.13;23.33;;;;;;;4.32;100.00;97806.34;10456304;28;20049;-60
2021/11/21 06:51:02;;;;;;;38.85;23.38;;;;;;;4.31;100.00;97802.81;10454778;28;20416;-60
2021/11/21 06:56:06;;;;;;;41.85;24.45;;;;;;;4.32;100.00;97799.19;10450121;28;20037;-61
2021/11/21 07:01:10;;;;;;;39.85;23.13;;;;;;;4.32;100.00;97795.69;10474903;28;20146;-60
2021/11/21 07:06:29;;;;;;;37.53;22.27;;;;;;;4.32;100.00;97803.69;10458597;28;20051;-60
2021/11/21 07:11:34;;;;;;;37.85;22.65;;;;;;;4.34;100.00;97790.22;10519082;28;20025;-63
2021/11/21 07:16:37;;;;;;;42.17;23.45;;;;;;;4.36;100.00;97793.59;10509610;28;20056;-64
2021/11/21 07:21:40;;;;;;;37.22;21.20;;;;;;;4.39;100.00;97787.97;10495438;28;20540;-62
2021/11/21 07:26:44;;;;;;;39.20;22.90;;;;;;;4.41;100.00;97786.03;10461973;28;20455;-60
2021/11/21 07:31:48;;;;;;;35.67;21.23;;;;;;;4.43;100.00;97794.72;10449964;28;20080;-59
2021/11/21 07:36:51;;;;;;;42.83;24.85;;;;;;;4.45;100.00;97795.41;10441715;28;20470;-62
2021/11/21 07:41:55;;;;;;;37.15;21.77;;;;;;;4.46;100.00;97789.09;10469226;28;20566;-61
2021/11/21 07:47:04;;;;;;;39.17;23.38;;;;;;;4.48;100.00;97800.50;10473831;28;20039;-58
2021/11/21 07:52:08;;;;;;;37.40;21.92;;;;;;;4.48;100.00;97801.31;10468761;28;20121;-55
2021/11/21 07:57:17;;;;;;;36.58;22.30;;;;;;;4.51;100.00;97802.88;10468465;28;20037;-60
2021/11/21 08:02:20;;;;;;;38.25;21.83;;;;;;;4.54;100.00;97799.09;10465390;28;20049;-57
2021/11/21 08:07:24;;;;;;;34.42;21.35;;;;;;;4.60;100.00;97806.53;10466072;28;20044;-61
2021/11/21 08:12:28;;;;;;;37.15;22.27;;;;;;;4.65;100.00;97803.44;10464814;28;20116;-59
2021/11/21 08:17:31;;;;;;;36.38;21.35;;;;;;;4.69;100.00;97804.84;10461672;28;20060;-61
2021/11/21 08:22:36;;;;;;;32.13;20.65;;;;;;;4.72;100.00;97796.59;10458472;28;20282;-59
2021/11/21 08:27:41;;;;;;;37.83;21.58;;;;;;;4.76;100.00;97798.00;10461311;28;20136;-59
2021/11/21 08:32:44;;;;;;;30.13;18.65;;;;;;;4.82;100.00;97799.25;10460313;28;20084;-59
2021/11/21 08:37:48;;;;;;;33.03;19.95;;;;;;;4.84;100.00;97792.78;10456451;28;20131;-62
2021/11/21 08:42:52;;;;;;;32.97;19.98;;;;;;;4.90;100.00;97789.53;10463658;28;20412;-54
2021/11/21 08:47:56;;;;;;;31.67;19.17;;;;;;;4.93;100.00;97799.13;10462226;28;20509;-63
2021/11/21 08:53:00;;;;;;;29.40;18.90;;;;;;;4.96;100.00;97784.63;10468617;28;20063;-62
2021/11/21 08:58:05;;;;;;;30.00;18.90;;;;;;;4.99;100.00;97784.38;10469714;28;20139;-60
2021/11/21 09:03:08;;;;;;;28.60;18.73;;;;;;;5.01;100.00;97771.69;10481709;28;20048;-62
2021/11/21 09:08:12;;;;;;;29.85;18.15;;;;;;;5.03;100.00;97780.41;10478396;28;20048;-59
2021/11/21 09:13:16;;;;;;;27.88;18.10;;;;;;;5.04;100.00;97780.28;10480465;28;20128;-61
2021/11/21 09:18:24;;;;;;;27.55;18.13;;;;;;;5.05;100.00;97781.13;10463685;28;20049;-61
2021/11/21 09:23:28;;;;;;;26.15;17.40;;;;;;;5.09;100.00;97780.69;10457547;28;20072;-58
2021/11/21 09:28:33;;;;;;;26.88;16.95;;;;;;;5.12;100.00;97779.53;10466217;28;20068;-62
2021/11/21 09:33:36;;;;;;;28.27;17.10;;;;;;;5.16;100.00;97780.13;10472645;28;20048;-62
2021/11/21 09:38:39;;;;;;;25.48;16.85;;;;;;;5.16;100.00;97770.28;10470093;28;20116;-62
2021/11/21 09:43:44;;;;;;;26.15;17.83;;;;;;;5.21;100.00;97773.38;10447868;28;20152;-63
2021/11/21 09:48:47;;;;;;;25.77;16.23;;;;;;;5.21;100.00;97778.72;10470986;28;20113;-62
2021/11/21 09:53:50;;;;;;;25.38;16.50;;;;;;;5.28;100.00;97776.31;10465350;28;20128;-61
2021/11/21 09:58:55;;;;;;;25.83;16.25;;;;;;;5.31;100.00;97761.81;10462886;28;20047;-62
2021/11/21 10:03:58;;;;;;;25.85;16.35;;;;;;;5.35;100.00;97760.56;10460408;28;20430;-62
2021/11/21 10:09:01;;;;;;;25.67;17.45;;;;;;;5.39;100.00;97760.13;10461579;28;20098;-60
2021/11/21 10:14:06;;;;;;;27.15;16.48;;;;;;;5.43;100.00;97749.13;10463891;28;20140;-60
2021/11/21 10:19:10;;;;;;;24.33;16.05;;;;;;;5.49;100.00;97737.88;10459010;28;20131;-63
2021/11/21 10:24:20;;;;;;;26.20;17.10;;;;;;;5.59;100.00;97738.69;10457662;28;20166;-63
2021/11/21 10:29:30;;;;;;;26.58;16.50;;;;;;;5.65;100.00;97735.41;10455123;28;20105;-63
2021/11/21 10:34:33;;;;;;;25.23;16.52;;;;;;;5.75;100.00;97727.34;10452723;28;20147;-55
2021/11/21 10:39:44;;;;;;;26.88;16.95;;;;;;;5.80;100.00;97730.44;10450866;28;20037;-63
2021/11/21 10:44:54;;;;;;;24.80;16.42;;;;;;;5.91;100.00;97725.88;10453506;28;20124;-62
2021/11/21 10:49:57;;;;;;;24.63;16.55;;;;;;;6.01;100.00;97707.97;10468896;28;20434;-64
2021/11/21 10:54:59;;;;;;;23.42;15.93;;;;;;;6.11;100.00;97711.44;10460112;28;20123;-62
2021/11/21 11:00:15;;;;;;;24.45;16.73;;;;;;;6.22;100.00;97714.88;10466094;28;20493;-61
2021/11/21 11:05:20;;;;;;;22.52;16.13;;;;;;;6.32;100.00;97707.63;10471021;28;20064;-61
2021/11/21 11:10:25;;;;;;;24.75;16.08;;;;;;;6.42;100.00;97703.03;10467248;28;20048;-64
2021/11/21 11:15:34;;;;;;;23.47;15.97;;;;;;;6.53;100.00;97709.16;10432285;28;1101162;-63
2021/11/21 11:20:42;;;;;;;21.55;14.98;;;;;;;6.63;100.00;97699.22;10449944;28;20135;-64
2021/11/21 11:25:47;;;;;;;19.88;13.93;;;;;;;6.69;100.00;97693.25;10467850;28;20061;-60
2021/11/21 11:30:53;;;;;;;17.95;13.13;;;;;;;6.76;100.00;97688.94;10451338;28;20111;-63
2021/11/21 11:35:57;;;;;;;20.42;13.93;;;;;;;6.84;100.00;97688.16;10478840;28;20040;-63
2021/11/21 11:41:01;;;;;;;19.02;13.40;;;;;;;6.92;100.00;97687.41;10460759;28;20593;-63
2021/11/21 11:46:09;;;;;;;18.35;12.82;;;;;;;6.94;100.00;97685.41;10464366;28;20039;-60
2021/11/21 11:51:21;;;;;;;18.88;12.93;;;;;;;6.98;100.00;97670.72;10466960;28;20040;-59
2021/11/21 11:56:26;;;;;;;17.27;12.32;;;;;;;7.02;100.00;97671.25;10463268;28;20127;-60
2021/11/21 12:01:55;;;;;;;15.57;11.07;;;;;;;7.01;100.00;97670.38;10452199;28;20049;-61
2021/11/21 12:07:02;;;;;;;15.57;11.23;;;;;;;6.98;100.00;97664.50;10468933;28;20069;-60
2021/11/21 12:12:08;;;;;;;16.05;11.63;;;;;;;7.01;100.00;97670.38;10467541;28;20136;-58
2021/11/21 12:17:15;;;;;;;17.95;12.15;;;;;;;7.05;100.00;97668.25;10474259;28;20582;-62
2021/11/21 12:22:38;;;;;;;17.42;12.85;;;;;;;6.99;100.00;97667.03;10461017;28;20048;-59
2021/11/21 12:27:44;;;;;;;24.00;15.15;;;;;;;6.96;100.00;97664.69;10474424;28;20139;-64
2021/11/21 12:32:50;;;;;;;23.73;15.98;;;;;;;6.87;100.00;97674.47;10455066;28;20041;-62
2021/11/21 12:37:55;;;;;;;23.23;15.77;;;;;;;6.74;100.00;97680.25;10462169;28;20063;-61
2021/11/21 12:43:03;;;;;;;21.58;12.57;;;;;;;6.69;100.00;97687.91;10461033;28;20124;-60
2021/11/21 12:48:09;;;;;;;23.55;14.18;;;;;;;6.52;100.00;97696.78;10471131;28;20119;-63
2021/11/21 12:53:19;;;;;;;24.55;14.85;;;;;;;6.46;100.00;97703.59;10456758;28;20079;-63
2021/11/21 12:58:24;;;;;;;25.65;14.77;;;;;;;6.47;100.00;97700.75;10462456;28;20041;-64
2021/11/21 13:03:31;;;;;;;25.15;14.85;;;;;;;6.41;100.00;97696.00;10456327;28;20084;-63
2021/11/21 13:08:35;;;;;;;25.92;14.73;;;;;;;6.41;100.00;97695.19;10475146;28;20091;-62
2021/11/21 13:13:40;;;;;;;24.80;14.55;;;;;;;6.42;100.00;97697.69;10467586;28;20119;-63
2021/11/21 13:18:46;;;;;;;24.05;13.55;;;;;;;6.39;100.00;97697.16;10449951;28;20135;-61
2021/11/21 13:23:53;;;;;;;18.42;11.68;;;;;;;6.32;100.00;97699.59;10475379;28;20067;-59
2021/11/21 13:28:58;;;;;;;22.60;12.90;;;;;;;6.29;100.00;97705.28;10462721;28;20154;-65
2021/11/21 13:34:05;;;;;;;27.00;14.23;;;;;;;6.26;100.00;97702.91;10468031;28;20071;-66
2021/11/21 13:39:13;;;;;;;24.88;14.15;;;;;;;6.25;100.00;97709.22;10459483;28;20033;-67
2021/11/21 13:44:17;;;;;;;26.92;13.82;;;;;;;6.23;100.00;97709.41;10462693;28;20049;-65
2021/11/21 13:49:26;;;;;;;26.67;14.50;;;;;;;6.22;100.00;97713.06;10467302;28;20055;-63
2021/11/21 13:54:33;;;;;;;28.02;15.27;;;;;;;6.17;100.00;97708.13;10448776;28;20111;-63
2021/11/21 13:59:41;;;;;;;36.83;16.23;;;;;;;6.19;100.00;97709.81;10466249;28;20064;-63
2021/11/21 14:04:46;;;;;;;28.60;15.77;;;;;;;6.21;100.00;97716.72;10463476;28;20066;-62
2021/11/21 14:09:54;;;;;;;29.88;15.48;;;;;;;6.23;100.00;97729.94;10462594;28;20039;-62
2021/11/21 14:15:09;;;;;;;27.48;15.55;;;;;;;6.26;100.00;97729.66;10469173;28;20037;-65
2021/11/21 14:20:42;;;;;;;23.52;14.30;;;;;;;6.31;100.00;97735.38;10466631;28;20055;-66
2021/11/21 14:25:47;;;;;;;24.02;14.73;;;;;;;6.32;100.00;97729.03;10466216;28;20473;-64
2021/11/21 14:30:53;;;;;;;30.35;14.82;;;;;;;6.33;100.00;97730.72;10465351;28;20473;-65
2021/11/21 14:36:00;;;;;;;24.92;15.10;;;;;;;6.32;100.00;97735.22;10471617;28;20111;-65
2021/11/21 14:41:07;;;;;;;26.77;15.02;;;;;;;6.34;100.00;97732.41;10472837;28;20036;-67
2021/11/21 14:46:11;;;;;;;25.27;14.80;;;;;;;6.37;100.00;97734.78;10465659;28;20498;-64
2021/11/21 14:51:20;;;;;;;26.27;14.80;;;;;;;6.40;100.00;97736.28;10480476;28;20492;-64
2021/11/21 14:56:23;;;;;;;24.23;14.95;;;;;;;6.41;100.00;97735.31;10470073;28;20053;-64
2021/11/21 15:01:28;;;;;;;25.15;14.82;;;;;;;6.42;100.00;97745.03;10476155;28;20128;-64
2021/11/21 15:06:37;;;;;;;20.88;13.63;;;;;;;6.42;100.00;97742.34;10491538;28;20049;-64
2021/11/21 15:11:43;;;;;;;24.83;14.23;;;;;;;6.42;100.00;97734.31;10492156;28;20045;-66
2021/11/21 15:16:48;;;;;;;24.23;13.68;;;;;;;6.35;100.00;97743.97;10478530;28;20409;-65
2021/11/21 15:21:52;;;;;;;24.15;14.02;;;;;;;6.35;100.00;97746.63;10473383;28;20535;-66
2021/11/21 15:26:55;;;;;;;27.85;15.57;;;;;;;6.33;100.00;97746.75;10463149;28;20091;-65
2021/11/21 15:31:58;;;;;;;23.08;14.55;;;;;;;6.32;100.00;97755.78;10469373;28;20044;-64
2021/11/21 15:37:03;;;;;;;31.77;14.30;;;;;;;6.30;100.00;97752.41;10468652;28;20127;-65
2021/11/21 15:42:08;;;;;;;23.35;13.00;;;;;;;6.29;100.00;97751.56;10457034;28;20114;-65
2021/11/21 15:47:11;;;;;;;26.45;15.00;;;;;;;6.29;100.00;97756.09;10453099;28;20490;-65
2021/11/21 15:52:15;;;;;;;23.83;13.73;;;;;;;6.27;100.00;97766.94;10460238;28;20072;-65
2021/11/21 15:57:19;;;;;;;20.60;13.23;;;;;;;6.26;100.00;97773.28;10458009;28;20052;-64
2021/11/21 16:02:23;;;;;;;24.40;14.23;;;;;;;6.27;100.00;97769.59;10476059;28;20068;-64
2021/11/21 16:07:27;;;;;;;20.88;13.15;;;;;;;6.25;100.00;97771.59;10473553;28;20055;-65
2021/11/21 16:12:30;;;;;;;23.67;13.68;;;;;;;6.27;100.00;97774.13;10470659;28;20061;-65
2021/11/21 16:17:34;;;;;;;22.77;13.57;;;;;;;6.25;100.00;97770.75;10467866;28;20049;-65
2021/11/21 16:22:38;;;;;;;22.50;14.25;;;;;;;6.25;100.00;97778.78;10462142;28;20078;-64
2021/11/21 16:27:41;;;;;;;23.80;14.48;;;;;;;6.26;100.00;97777.78;10457316;28;20132;-65
2021/11/21 16:32:45;;;;;;;21.90;13.57;;;;;;;6.26;100.00;97783.97;10441584;28;20453;-65
2021/11/21 16:37:50;;;;;;;21.40;13.63;;;;;;;6.24;100.00;97785.13;10477021;28;20098;-63
2021/11/21 16:42:53;;;;;;;25.27;14.93;;;;;;;6.24;100.00;97796.66;10490505;28;20060;-63
2021/11/21 16:47:57;;;;;;;29.05;16.77;;;;;;;6.23;100.00;97802.16;10496039;28;20415;-63
2021/11/21 16:53:10;;;;;;;32.05;17.38;;;;;;;6.23;100.00;97804.84;10467571;28;20083;-65
2021/11/21 16:58:17;;;;;;;31.92;18.45;;;;;;;6.18;100.00;97813.31;10487987;28;20056;-63
2021/11/21 17:03:27;;;;;;;32.38;18.98;;;;;;;6.15;100.00;97821.63;10540132;28;20141;-64
2021/11/21 17:08:32;;;;;;;40.95;19.35;;;;;;;6.13;100.00;97827.13;10531921;28;20044;-63
2021/11/21 17:13:36;;;;;;;37.65;18.67;;;;;;;6.11;100.00;97837.13;10504144;28;20045;-63
2021/11/21 17:18:39;;;;;;;39.53;19.90;;;;;;;6.09;100.00;97839.09;10499670;28;20045;-63
2021/11/21 17:23:45;;;;;;;49.65;21.48;;;;;;;6.07;100.00;97843.75;10459598;28;20053;-68
2021/11/21 17:28:49;;;;;;;45.42;21.10;;;;;;;6.09;100.00;97857.81;10465503;28;20483;-68
2021/11/21 17:33:52;;;;;;;46.08;22.50;;;;;;;6.09;100.00;97857.00;10468911;28;20490;-59
2021/11/21 17:38:57;;;;;;;44.70;21.80;;;;;;;6.09;100.00;97860.50;10460188;28;20074;-61
2021/11/21 17:44:02;;;;;;;43.72;21.25;;;;;;;6.11;100.00;97873.75;10449875;28;20544;-61
2021/11/21 17:49:06;;;;;;;40.45;21.42;;;;;;;6.10;100.00;97866.69;10442232;28;20592;-61
2021/11/21 17:54:10;;;;;;;44.63;21.25;;;;;;;6.09;100.00;97891.75;10473219;28;20076;-64
2021/11/21 17:59:14;;;;;;;41.72;21.08;;;;;;;6.08;100.00;97887.38;10459809;28;20398;-62
2021/11/21 18:04:17;;;;;;;42.42;21.35;;;;;;;6.06;100.00;97900.88;10462157;28;20119;-65
2021/11/21 18:09:22;;;;;;;40.45;21.45;;;;;;;6.07;100.00;97902.56;10455547;28;20095;-65
2021/11/21 18:14:26;;;;;;;41.90;22.50;;;;;;;6.07;100.00;97907.94;10460535;28;20120;-59
2021/11/21 18:19:29;;;;;;;46.35;22.08;;;;;;;6.05;100.00;97909.94;10460040;28;20131;-60
2021/11/21 18:24:38;;;;;;;50.22;23.70;;;;;;;6.05;100.00;97915.28;10458807;28;20049;-62
2021/11/21 18:29:41;;;;;;;45.90;21.85;;;;;;;6.03;100.00;97917.25;10457211;28;20129;-64
2021/11/21 18:34:46;;;;;;;40.42;21.90;;;;;;;6.04;100.00;97920.75;10454001;28;20132;-64
2021/11/21 18:39:51;;;;;;;43.92;23.40;;;;;;;6.02;100.00;97920.91;10453050;28;20041;-63
2021/11/21 18:44:54;;;;;;;38.50;20.88;;;;;;;6.03;100.00;97921.72;10443583;28;20072;-64
2021/11/21 18:49:57;;;;;;;35.25;19.88;;;;;;;6.06;100.00;97924.13;10444676;28;20045;-64
2021/11/21 18:55:07;;;;;;;45.58;21.50;;;;;;;6.06;100.00;97932.97;10444817;28;20132;-64
2021/11/21 19:00:15;;;;;;;40.65;21.45;;;;;;;6.04;100.00;97932.31;10466543;28;20098;-64
2021/11/21 19:05:19;;;;;;;39.90;22.15;;;;;;;6.05;100.00;97942.00;10450207;28;20120;-63
2021/11/21 19:10:24;;;;;;;40.80;20.73;;;;;;;6.06;100.00;97940.16;10465416;28;20068;-61
2021/11/21 19:15:28;;;;;;;40.95;22.50;;;;;;;6.08;100.00;97946.22;10446586;28;20421;-64
2021/11/21 19:20:35;;;;;;;39.88;21.15;;;;;;;6.08;100.00;97949.72;10459833;28;20457;-65
2021/11/21 19:25:40;;;;;;;40.63;20.42;;;;;;;6.08;100.00;97955.06;10470440;28;20123;-64
2021/11/21 19:30:43;;;;;;;40.85;21.20;;;;;;;6.09;100.00;97963.97;10466384;28;20123;-63
2021/11/21 19:35:46;;;;;;;37.42;20.13;;;;;;;6.09;100.00;97972.81;10476521;28;20094;-63
2021/11/21 19:40:51;;;;;;;39.55;21.48;;;;;;;6.09;100.00;97966.63;10464097;28;20124;-66
2021/11/21 19:45:54;;;;;;;35.10;19.55;;;;;;;6.09;100.00;97980.84;10455086;28;20060;-66
2021/11/21 19:50:57;;;;;;;37.65;20.77;;;;;;;6.08;100.00;97986.34;10455670;28;20067;-65
2021/11/21 19:56:02;;;;;;;41.15;21.73;;;;;;;6.07;100.00;97988.16;10450860;28;20041;-65
2021/11/21 20:01:06;;;;;;;36.20;20.40;;;;;;;6.06;100.00;97999.84;10466070;28;20080;-62
2021/11/21 20:06:09;;;;;;;56.38;22.45;;;;;;;6.06;100.00;97997.16;10466811;28;20036;-64
2021/11/21 20:11:14;;;;;;;32.63;18.42;;;;;;;6.25;100.00;98000.81;10460660;28;20032;-64
2021/11/21 20:16:17;;;;;;;31.30;18.02;;;;;;;6.28;100.00;98006.69;10442827;28;20710;-63
2021/11/21 20:21:21;;;;;;;28.30;17.77;;;;;;;6.32;100.00;98013.47;10444710;28;20052;-59
2021/11/21 20:26:25;;;;;;;23.63;15.32;;;;;;;6.37;100.00;98014.84;10463077;28;20120;-64
2021/11/21 20:36:49;;;;;;;29.30;16.65;;;;;;;6.37;100.00;98023.72;10455481;28;20057;-66
2021/11/21 20:41:54;;;;;;;25.33;16.05;;;;;;;6.38;100.00;98027.22;10459354;28;20098;-66
2021/11/21 20:46:57;;;;;;;26.20;16.67;;;;;;;6.43;100.00;98038.34;10459917;28;20553;-65
2021/11/21 20:52:00;;;;;;;23.30;15.52;;;;;;;6.46;100.00;98043.44;10467985;28;20079;-65
2021/11/21 20:57:05;;;;;;;26.05;16.50;;;;;;;6.45;100.00;98045.25;10473896;28;20070;-65
2021/11/21 21:02:09;;;;;;;23.83;16.60;;;;;;;6.42;100.00;98045.53;10471875;28;20041;-64
2021/11/21 21:07:12;;;;;;;27.67;17.00;;;;;;;6.41;100.00;98051.03;10445223;28;20076;-66
2021/11/21 21:12:17;;;;;;;26.70;16.90;;;;;;;6.37;100.00;98058.50;10481301;28;20052;-65
2021/11/21 21:17:20;;;;;;;27.40;16.35;;;;;;;6.39;100.00;98067.25;10457174;28;20440;-66
2021/11/21 21:22:23;;;;;;;25.13;16.48;;;;;;;6.34;100.00;98061.47;10468587;28;20128;-64
2021/11/21 21:27:28;;;;;;;23.10;15.02;;;;;;;6.39;100.00;98069.06;10459868;28;20083;-65
2021/11/21 21:32:31;;;;;;;24.40;15.10;;;;;;;6.39;100.00;98072.59;10461926;28;20495;-64
2021/11/21 21:37:36;;;;;;;21.67;15.23;;;;;;;6.46;100.00;98071.03;10472089;28;20036;-65
2021/11/21 21:42:52;;;;;;;21.45;15.55;;;;;;;6.43;100.00;98073.97;10471010;28;20107;-63
2021/11/21 21:47:57;;;;;;;24.73;14.93;;;;;;;6.43;100.00;98067.78;10466975;28;20583;-64
2021/11/21 21:53:00;;;;;;;25.05;15.45;;;;;;;6.42;100.00;98077.63;10467963;28;20389;-65
2021/11/21 21:58:05;;;;;;;24.45;14.18;;;;;;;6.39;100.00;98077.94;10461358;28;20044;-64
2021/11/21 22:03:08;;;;;;;23.15;14.48;;;;;;;6.42;100.00;98072.28;10467087;28;20111;-63
2021/11/21 22:08:13;;;;;;;22.13;13.40;;;;;;;6.30;100.00;98074.28;10463504;28;20072;-63
2021/11/21 22:13:19;;;;;;;21.45;12.63;;;;;;;6.24;100.00;98074.84;10465628;28;20075;-63
2021/11/21 22:18:22;;;;;;;22.17;11.25;;;;;;;6.29;100.00;98080.63;10457959;28;20049;-63
2021/11/21 22:23:25;;;;;;;19.77;10.32;;;;;;;6.18;100.00;98088.78;10461633;28;20135;-63
2021/11/21 22:28:30;;;;;;;18.27;10.45;;;;;;;6.15;100.00;98102.44;10457977;28;20135;-64
2021/11/21 22:33:33;;;;;;;21.30;10.23;;;;;;;6.13;100.00;98099.94;10436678;28;20045;-64
2021/11/21 22:38:36;;;;;;;18.92;9.75;;;;;;;6.16;100.00;98104.13;10454937;28;20053;-65
2021/11/21 22:43:41;;;;;;;19.60;9.90;;;;;;;6.12;100.00;98116.09;10455093;28;20085;-62
2021/11/21 22:48:44;;;;;;;19.77;9.20;;;;;;;6.17;100.00;98117.38;10435647;28;20084;-65
2021/11/21 22:53:47;;;;;;;25.20;10.07;;;;;;;6.14;100.00;98128.38;10457635;28;20539;-64
2021/11/21 22:58:51;;;;;;;20.35;9.82;;;;;;;6.12;100.00;98133.00;10459265;28;20071;-65
2021/11/21 23:03:55;;;;;;;25.80;10.30;;;;;;;6.12;100.00;98141.03;10463850;28;20071;-64
2021/11/21 23:08:58;;;;;;;20.30;10.13;;;;;;;6.14;100.00;98144.41;10478858;28;20041;-63
2021/11/21 23:14:03;;;;;;;22.17;10.57;;;;;;;6.14;100.00;98148.91;10466476;28;20049;-65